sensor_id;sensor_type;location;lat;lon;timestamp;P1;durP1;ratioP1;P2;durP2;ratioP2
13319;SDS011;59599;47.608;12.190;2022-08-01T04:02:31;4.68;;;3.30;;
13319;SDS011;59599;47.608;12.190;2022-08-01T04:04:58;5.07;;;2.80;;
13319;SDS011;59599;47.608;12.190;2022-08-01T04:07:25;6.93;;;3.05;;
13319;SDS011;59599;47.608;12.190;2022-08-01T04:09:55;3.35;;;3.05;;
13319;SDS011;59599;47.608;12.190;2022-08-01T04:12:21;7.07;;;3.10;;
13319;SDS011;59599;47.608;12.190;2022-08-01T04:14:47;6.85;;;3.72;;
13319;SDS011;59599;47.608;12.190;2022-08-01T04:17:14;3.83;;;3.33;;
13319;SDS011;59599;47.608;12.190;2022-08-01T04:19:40;4.10;;;3.13;;
13319;SDS011;59599;47.608;12.190;2022-08-01T04:22:06;5.47;;;3.28;;
13319;SDS011;59599;47.608;12.190;2022-08-01T04:24:32;3.88;;;3.35;;
13319;SDS011;59599;47.608;12.190;2022-08-01T04:27:00;5.43;;;3.70;;
13319;SDS011;59599;47.608;12.190;2022-08-01T04:29:27;4.38;;;3.75;;
13319;SDS011;59599;47.608;12.190;2022-08-01T04:31:54;4.90;;;3.90;;
13319;SDS011;59599;47.608;12.190;2022-08-01T04:34:22;4.47;;;3.33;;
13319;SDS011;59599;47.608;12.190;2022-08-01T04:36:50;5.13;;;3.28;;
13319;SDS011;59599;47.608;12.190;2022-08-01T04:39:19;5.68;;;3.45;;
13319;SDS011;59599;47.608;12.190;2022-08-01T04:41:48;8.68;;;3.75;;
13319;SDS011;59599;47.608;12.190;2022-08-01T04:44:15;4.72;;;3.50;;
13319;SDS011;59599;47.608;12.190;2022-08-01T04:46:41;4.85;;;3.10;;
13319;SDS011;59599;47.608;12.190;2022-08-01T04:49:08;4.05;;;3.60;;
13319;SDS011;59599;47.608;12.190;2022-08-01T04:51:36;9.50;;;4.07;;
13319;SDS011;59599;47.608;12.190;2022-08-01T04:54:03;7.88;;;4.18;;
13319;SDS011;59599;47.608;12.190;2022-08-01T04:56:29;5.97;;;3.65;;
13319;SDS011;59599;47.608;12.190;2022-08-01T04:58:55;6.43;;;4.00;;
13319;SDS011;59599;47.608;12.190;2022-08-01T05:01:39;5.30;;;3.70;;
13319;SDS011;59599;47.608;12.190;2022-08-01T05:04:04;4.20;;;3.80;;
13319;SDS011;59599;47.608;12.190;2022-08-01T05:06:30;5.75;;;3.72;;
13319;SDS011;59599;47.608;12.190;2022-08-01T05:08:55;5.30;;;4.13;;
13319;SDS011;59599;47.608;12.190;2022-08-01T05:11:21;6.85;;;4.10;;
13319;SDS011;59599;47.608;12.190;2022-08-01T05:13:47;4.57;;;3.45;;
13319;SDS011;59599;47.608;12.190;2022-08-01T05:16:13;5.25;;;3.78;;
13319;SDS011;59599;47.608;12.190;2022-08-01T05:18:39;8.85;;;3.90;;
13319;SDS011;59599;47.608;12.190;2022-08-01T05:21:04;4.07;;;3.67;;
13319;SDS011;59599;47.608;12.190;2022-08-01T05:23:30;4.30;;;3.67;;
13319;SDS011;59599;47.608;12.190;2022-08-01T05:25:56;4.03;;;3.60;;
13319;SDS011;59599;47.608;12.190;2022-08-01T05:28:23;4.00;;;3.53;;
13319;SDS011;59599;47.608;12.190;2022-08-01T05:30:48;3.75;;;3.45;;
13319;SDS011;59599;47.608;12.190;2022-08-01T05:33:14;6.75;;;3.80;;
13319;SDS011;59599;47.608;12.190;2022-08-01T05:35:40;4.43;;;3.70;;
13319;SDS011;59599;47.608;12.190;2022-08-01T05:38:06;3.60;;;3.28;;
13319;SDS011;59599;47.608;12.190;2022-08-01T05:40:32;4.55;;;3.38;;
13319;SDS011;59599;47.608;12.190;2022-08-01T05:42:57;5.07;;;3.30;;
13319;SDS011;59599;47.608;12.190;2022-08-01T05:45:23;5.65;;;3.30;;
13319;SDS011;59599;47.608;12.190;2022-08-01T05:47:49;3.83;;;3.50;;
13319;SDS011;59599;47.608;12.190;2022-08-01T05:50:15;4.03;;;3.47;;
13319;SDS011;59599;47.608;12.190;2022-08-01T05:52:41;4.22;;;3.45;;
13319;SDS011;59599;47.608;12.190;2022-08-01T05:55:07;4.32;;;2.65;;
13319;SDS011;59599;47.608;12.190;2022-08-01T05:57:34;4.68;;;3.40;;
13319;SDS011;59599;47.608;12.190;2022-08-01T05:59:59;6.82;;;3.30;;
13319;SDS011;59599;47.608;12.190;2022-08-01T06:02:25;7.95;;;3.22;;
13319;SDS011;59599;47.608;12.190;2022-08-01T06:04:52;5.35;;;3.13;;
13319;SDS011;59599;47.608;12.190;2022-08-01T06:07:18;3.55;;;2.80;;
13319;SDS011;59599;47.608;12.190;2022-08-01T06:09:44;3.80;;;3.40;;
13319;SDS011;59599;47.608;12.190;2022-08-01T06:12:10;5.03;;;2.78;;
13319;SDS011;59599;47.608;12.190;2022-08-01T06:14:35;3.13;;;2.72;;
13319;SDS011;59599;47.608;12.190;2022-08-01T06:17:01;5.82;;;3.20;;
13319;SDS011;59599;47.608;12.190;2022-08-01T06:19:27;3.40;;;3.10;;
13319;SDS011;59599;47.608;12.190;2022-08-01T06:21:53;3.13;;;2.80;;
13319;SDS011;59599;47.608;12.190;2022-08-01T06:24:18;4.55;;;2.88;;
13319;SDS011;59599;47.608;12.190;2022-08-01T06:26:44;7.88;;;3.10;;
13319;SDS011;59599;47.608;12.190;2022-08-01T06:29:10;3.17;;;2.80;;
13319;SDS011;59599;47.608;12.190;2022-08-01T06:31:36;4.47;;;2.75;;
13319;SDS011;59599;47.608;12.190;2022-08-01T06:34:02;6.88;;;2.70;;
13319;SDS011;59599;47.608;12.190;2022-08-01T06:36:28;4.32;;;3.20;;
13319;SDS011;59599;47.608;12.190;2022-08-01T06:38:53;3.25;;;2.95;;
13319;SDS011;59599;47.608;12.190;2022-08-01T06:41:19;5.35;;;2.63;;
13319;SDS011;59599;47.608;12.190;2022-08-01T06:43:44;3.13;;;2.70;;
13319;SDS011;59599;47.608;12.190;2022-08-01T06:46:10;3.75;;;2.80;;
13319;SDS011;59599;47.608;12.190;2022-08-01T06:48:36;2.85;;;2.55;;
13319;SDS011;59599;47.608;12.190;2022-08-01T06:51:04;2.83;;;2.35;;
13319;SDS011;59599;47.608;12.190;2022-08-01T06:53:33;4.90;;;2.70;;
13319;SDS011;59599;47.608;12.190;2022-08-01T06:55:59;3.92;;;2.80;;
13319;SDS011;59599;47.608;12.190;2022-08-01T06:58:25;4.97;;;3.30;;
13319;SDS011;59599;47.608;12.190;2022-08-01T07:00:51;5.97;;;2.97;;
13319;SDS011;59599;47.608;12.190;2022-08-01T07:03:17;7.47;;;2.83;;
13319;SDS011;59599;47.608;12.190;2022-08-01T07:05:43;5.55;;;2.80;;
13319;SDS011;59599;47.608;12.190;2022-08-01T07:08:09;2.47;;;2.28;;
13319;SDS011;59599;47.608;12.190;2022-08-01T07:10:34;3.80;;;2.60;;
13319;SDS011;59599;47.608;12.190;2022-08-01T07:13:00;2.72;;;2.53;;
13319;SDS011;59599;47.608;12.190;2022-08-01T07:15:25;6.38;;;2.30;;
13319;SDS011;59599;47.608;12.190;2022-08-01T07:17:51;4.28;;;2.90;;
13319;SDS011;59599;47.608;12.190;2022-08-01T07:20:17;4.53;;;2.45;;
13319;SDS011;59599;47.608;12.190;2022-08-01T07:22:43;4.68;;;2.50;;
13319;SDS011;59599;47.608;12.190;2022-08-01T07:25:08;5.13;;;2.80;;
13319;SDS011;59599;47.608;12.190;2022-08-01T07:27:34;5.38;;;2.60;;
13319;SDS011;59599;47.608;12.190;2022-08-01T07:30:00;4.88;;;2.65;;
13319;SDS011;59599;47.608;12.190;2022-08-01T07:32:26;2.63;;;2.42;;
13319;SDS011;59599;47.608;12.190;2022-08-01T07:34:54;3.33;;;2.38;;
13319;SDS011;59599;47.608;12.190;2022-08-01T07:37:19;3.63;;;2.17;;
13319;SDS011;59599;47.608;12.190;2022-08-01T07:39:45;5.95;;;2.40;;
13319;SDS011;59599;47.608;12.190;2022-08-01T07:42:11;3.05;;;2.25;;
13319;SDS011;59599;47.608;12.190;2022-08-01T07:44:36;5.03;;;2.55;;
13319;SDS011;59599;47.608;12.190;2022-08-01T07:47:03;2.55;;;2.35;;
13319;SDS011;59599;47.608;12.190;2022-08-01T07:49:29;5.13;;;2.58;;
13319;SDS011;59599;47.608;12.190;2022-08-01T07:51:55;3.97;;;2.55;;
13319;SDS011;59599;47.608;12.190;2022-08-01T07:54:21;4.03;;;2.42;;
13319;SDS011;59599;47.608;12.190;2022-08-01T07:56:48;5.57;;;2.50;;
13319;SDS011;59599;47.608;12.190;2022-08-01T07:59:14;4.30;;;2.58;;
13319;SDS011;59599;47.608;12.190;2022-08-01T08:01:40;3.25;;;2.70;;
13319;SDS011;59599;47.608;12.190;2022-08-01T08:04:07;4.30;;;2.25;;
13319;SDS011;59599;47.608;12.190;2022-08-01T08:06:32;3.80;;;2.35;;
13319;SDS011;59599;47.608;12.190;2022-08-01T08:08:58;3.95;;;2.38;;
13319;SDS011;59599;47.608;12.190;2022-08-01T08:11:23;5.53;;;2.60;;
13319;SDS011;59599;47.608;12.190;2022-08-01T08:13:49;3.85;;;2.65;;
13319;SDS011;59599;47.608;12.190;2022-08-01T08:16:14;4.35;;;2.47;;
13319;SDS011;59599;47.608;12.190;2022-08-01T08:18:40;3.38;;;2.42;;
13319;SDS011;59599;47.608;12.190;2022-08-01T08:21:06;2.75;;;2.38;;
13319;SDS011;59599;47.608;12.190;2022-08-01T08:23:32;2.33;;;2.05;;
13319;SDS011;59599;47.608;12.190;2022-08-01T08:26:16;3.60;;;2.65;;
13319;SDS011;59599;47.608;12.190;2022-08-01T08:28:41;2.60;;;2.40;;
13319;SDS011;59599;47.608;12.190;2022-08-01T08:31:07;3.72;;;2.60;;
13319;SDS011;59599;47.608;12.190;2022-08-01T08:33:33;3.35;;;3.05;;
13319;SDS011;59599;47.608;12.190;2022-08-01T08:35:59;4.82;;;2.50;;
13319;SDS011;59599;47.608;12.190;2022-08-01T08:38:25;2.17;;;1.98;;
13319;SDS011;59599;47.608;12.190;2022-08-01T08:40:52;3.28;;;2.28;;
13319;SDS011;59599;47.608;12.190;2022-08-01T08:43:18;3.70;;;2.60;;
13319;SDS011;59599;47.608;12.190;2022-08-01T08:45:44;8.32;;;2.60;;
13319;SDS011;59599;47.608;12.190;2022-08-01T08:48:10;3.47;;;2.30;;
13319;SDS011;59599;47.608;12.190;2022-08-01T08:50:37;6.75;;;2.78;;
13319;SDS011;59599;47.608;12.190;2022-08-01T08:53:05;7.38;;;2.55;;
13319;SDS011;59599;47.608;12.190;2022-08-01T08:55:34;3.17;;;2.30;;
13319;SDS011;59599;47.608;12.190;2022-08-01T08:58:00;2.75;;;2.55;;
13319;SDS011;59599;47.608;12.190;2022-08-01T09:00:30;5.82;;;2.20;;
13319;SDS011;59599;47.608;12.190;2022-08-01T09:02:56;4.47;;;2.60;;
13319;SDS011;59599;47.608;12.190;2022-08-01T09:05:22;2.80;;;2.25;;
13319;SDS011;59599;47.608;12.190;2022-08-01T09:07:52;4.93;;;2.63;;
13319;SDS011;59599;47.608;12.190;2022-08-01T09:10:18;3.38;;;2.45;;
13319;SDS011;59599;47.608;12.190;2022-08-01T09:15:39;3.28;;;2.50;;
13319;SDS011;59599;47.608;12.190;2022-08-01T09:18:26;2.67;;;2.20;;
13319;SDS011;59599;47.608;12.190;2022-08-01T09:23:35;2.25;;;2.05;;
13319;SDS011;59599;47.608;12.190;2022-08-01T09:26:07;3.80;;;2.20;;
13319;SDS011;59599;47.608;12.190;2022-08-01T09:28:43;3.25;;;2.33;;
13319;SDS011;59599;47.608;12.190;2022-08-01T09:31:10;2.15;;;1.90;;
13319;SDS011;59599;47.608;12.190;2022-08-01T09:33:47;2.92;;;2.50;;
13319;SDS011;59599;47.608;12.190;2022-08-01T09:36:16;5.88;;;2.40;;
13319;SDS011;59599;47.608;12.190;2022-08-01T09:38:42;2.95;;;2.17;;
13319;SDS011;59599;47.608;12.190;2022-08-01T09:41:08;3.55;;;2.05;;
13319;SDS011;59599;47.608;12.190;2022-08-01T09:43:36;2.22;;;2.00;;
13319;SDS011;59599;47.608;12.190;2022-08-01T09:46:20;3.08;;;2.00;;
13319;SDS011;59599;47.608;12.190;2022-08-01T09:48:56;4.00;;;2.35;;
13319;SDS011;59599;47.608;12.190;2022-08-01T09:51:33;5.22;;;2.20;;
13319;SDS011;59599;47.608;12.190;2022-08-01T09:54:01;3.30;;;2.40;;
13319;SDS011;59599;47.608;12.190;2022-08-01T09:56:39;2.03;;;1.92;;
13319;SDS011;59599;47.608;12.190;2022-08-01T09:59:07;3.95;;;2.00;;
13319;SDS011;59599;47.608;12.190;2022-08-01T10:01:47;3.17;;;2.00;;
13319;SDS011;59599;47.608;12.190;2022-08-01T10:04:15;2.20;;;2.00;;
13319;SDS011;59599;47.608;12.190;2022-08-01T10:06:43;3.75;;;2.47;;
13319;SDS011;59599;47.608;12.190;2022-08-01T10:09:10;3.90;;;2.60;;
13319;SDS011;59599;47.608;12.190;2022-08-01T10:11:39;4.35;;;2.08;;
13319;SDS011;59599;47.608;12.190;2022-08-01T10:14:08;3.88;;;1.90;;
13319;SDS011;59599;47.608;12.190;2022-08-01T10:16:37;4.20;;;2.03;;
13319;SDS011;59599;47.608;12.190;2022-08-01T10:19:05;2.78;;;2.00;;
13319;SDS011;59599;47.608;12.190;2022-08-01T10:21:32;2.45;;;1.95;;
13319;SDS011;59599;47.608;12.190;2022-08-01T10:23:59;2.97;;;2.17;;
13319;SDS011;59599;47.608;12.190;2022-08-01T10:26:27;3.03;;;2.00;;
13319;SDS011;59599;47.608;12.190;2022-08-01T10:28:56;2.40;;;2.10;;
13319;SDS011;59599;47.608;12.190;2022-08-01T10:31:22;3.80;;;2.40;;
13319;SDS011;59599;47.608;12.190;2022-08-01T10:33:48;2.90;;;2.20;;
13319;SDS011;59599;47.608;12.190;2022-08-01T10:36:17;2.95;;;2.00;;
13319;SDS011;59599;47.608;12.190;2022-08-01T10:38:45;2.42;;;2.17;;
13319;SDS011;59599;47.608;12.190;2022-08-01T10:41:11;3.72;;;2.25;;
13319;SDS011;59599;47.608;12.190;2022-08-01T10:43:40;2.05;;;1.90;;
13319;SDS011;59599;47.608;12.190;2022-08-01T10:46:06;2.35;;;2.13;;
13319;SDS011;59599;47.608;12.190;2022-08-01T10:48:40;2.38;;;2.00;;
13319;SDS011;59599;47.608;12.190;2022-08-01T10:51:14;3.92;;;1.92;;
13319;SDS011;59599;47.608;12.190;2022-08-01T10:53:49;2.13;;;1.92;;
13319;SDS011;59599;47.608;12.190;2022-08-01T10:56:16;2.20;;;2.00;;
13319;SDS011;59599;47.608;12.190;2022-08-01T10:58:43;3.35;;;2.00;;
13319;SDS011;59599;47.608;12.190;2022-08-01T11:04:04;2.60;;;1.80;;
13319;SDS011;59599;47.608;12.190;2022-08-01T11:09:00;2.67;;;2.15;;
13319;SDS011;59599;47.608;12.190;2022-08-01T11:11:28;2.10;;;1.88;;
13319;SDS011;59599;47.608;12.190;2022-08-01T11:16:29;2.50;;;1.95;;
13319;SDS011;59599;47.608;12.190;2022-08-01T11:19:00;4.88;;;2.10;;
13319;SDS011;59599;47.608;12.190;2022-08-01T11:27:15;2.55;;;1.67;;
13319;SDS011;59599;47.608;12.190;2022-08-01T11:32:32;4.68;;;1.58;;
13319;SDS011;59599;47.608;12.190;2022-08-01T11:34:58;2.25;;;1.80;;
13319;SDS011;59599;47.608;12.190;2022-08-01T11:37:24;1.83;;;1.58;;
13319;SDS011;59599;47.608;12.190;2022-08-01T11:42:39;3.03;;;1.75;;
13319;SDS011;59599;47.608;12.190;2022-08-01T11:45:05;2.03;;;1.58;;
13319;SDS011;59599;47.608;12.190;2022-08-01T11:47:44;2.65;;;1.60;;
13319;SDS011;59599;47.608;12.190;2022-08-01T11:52:58;4.05;;;1.33;;
13319;SDS011;59599;47.608;12.190;2022-08-01T11:55:28;3.42;;;1.40;;
13319;SDS011;59599;47.608;12.190;2022-08-01T11:58:07;1.80;;;1.58;;
13319;SDS011;59599;47.608;12.190;2022-08-01T12:00:32;2.50;;;1.42;;
13319;SDS011;59599;47.608;12.190;2022-08-01T12:03:00;3.15;;;1.40;;
13319;SDS011;59599;47.608;12.190;2022-08-01T12:05:28;3.55;;;1.30;;
13319;SDS011;59599;47.608;12.190;2022-08-01T12:07:56;2.33;;;1.42;;
13319;SDS011;59599;47.608;12.190;2022-08-01T12:10:26;2.08;;;1.42;;
13319;SDS011;59599;47.608;12.190;2022-08-01T12:13:00;2.70;;;1.50;;
13319;SDS011;59599;47.608;12.190;2022-08-01T12:15:29;4.93;;;1.58;;
13319;SDS011;59599;47.608;12.190;2022-08-01T12:18:00;2.40;;;1.70;;
13319;SDS011;59599;47.608;12.190;2022-08-01T12:20:30;4.28;;;1.50;;
13319;SDS011;59599;47.608;12.190;2022-08-01T12:22:58;2.92;;;1.35;;
13319;SDS011;59599;47.608;12.190;2022-08-01T12:25:25;1.40;;;1.30;;
13319;SDS011;59599;47.608;12.190;2022-08-01T12:27:51;4.82;;;1.80;;
13319;SDS011;59599;47.608;12.190;2022-08-01T12:30:18;7.88;;;1.58;;
13319;SDS011;59599;47.608;12.190;2022-08-01T12:32:47;3.08;;;1.40;;
13319;SDS011;59599;47.608;12.190;2022-08-01T12:35:32;3.40;;;1.60;;
13319;SDS011;59599;47.608;12.190;2022-08-01T12:38:06;3.78;;;1.30;;
13319;SDS011;59599;47.608;12.190;2022-08-01T12:40:40;1.85;;;1.30;;
13319;SDS011;59599;47.608;12.190;2022-08-01T12:43:07;2.60;;;1.40;;
13319;SDS011;59599;47.608;12.190;2022-08-01T12:45:41;1.85;;;1.50;;
13319;SDS011;59599;47.608;12.190;2022-08-01T12:48:09;4.50;;;1.60;;
13319;SDS011;59599;47.608;12.190;2022-08-01T12:50:37;3.38;;;1.40;;
13319;SDS011;59599;47.608;12.190;2022-08-01T12:53:04;2.75;;;1.50;;
13319;SDS011;59599;47.608;12.190;2022-08-01T12:55:30;3.83;;;1.55;;
13319;SDS011;59599;47.608;12.190;2022-08-01T12:58:03;2.50;;;1.60;;
13319;SDS011;59599;47.608;12.190;2022-08-01T13:00:30;3.22;;;1.80;;
13319;SDS011;59599;47.608;12.190;2022-08-01T13:03:12;1.48;;;1.38;;
13319;SDS011;59599;47.608;12.190;2022-08-01T13:05:46;1.45;;;1.20;;
13319;SDS011;59599;47.608;12.190;2022-08-01T13:08:14;2.35;;;1.40;;
13319;SDS011;59599;47.608;12.190;2022-08-01T13:10:42;3.50;;;1.30;;
13319;SDS011;59599;47.608;12.190;2022-08-01T13:13:08;1.63;;;1.42;;
13319;SDS011;59599;47.608;12.190;2022-08-01T13:15:35;3.15;;;1.50;;
13319;SDS011;59599;47.608;12.190;2022-08-01T13:18:21;5.50;;;1.35;;
13319;SDS011;59599;47.608;12.190;2022-08-01T13:23:33;2.63;;;1.40;;
13319;SDS011;59599;47.608;12.190;2022-08-01T13:25:59;2.58;;;1.27;;
13319;SDS011;59599;47.608;12.190;2022-08-01T13:28:26;3.40;;;1.58;;
13319;SDS011;59599;47.608;12.190;2022-08-01T13:33:26;1.90;;;1.50;;
13319;SDS011;59599;47.608;12.190;2022-08-01T13:36:06;3.78;;;1.40;;
13319;SDS011;59599;47.608;12.190;2022-08-01T13:38:32;5.25;;;1.67;;
13319;SDS011;59599;47.608;12.190;2022-08-01T13:41:16;3.63;;;1.50;;
13319;SDS011;59599;47.608;12.190;2022-08-01T13:43:42;2.92;;;1.42;;
13319;SDS011;59599;47.608;12.190;2022-08-01T13:46:08;3.78;;;1.67;;
13319;SDS011;59599;47.608;12.190;2022-08-01T13:48:33;2.13;;;1.50;;
13319;SDS011;59599;47.608;12.190;2022-08-01T13:50:59;2.13;;;1.55;;
13319;SDS011;59599;47.608;12.190;2022-08-01T13:53:26;5.15;;;1.40;;
13319;SDS011;59599;47.608;12.190;2022-08-01T13:55:52;5.35;;;1.48;;
13319;SDS011;59599;47.608;12.190;2022-08-01T13:58:18;4.35;;;1.50;;
13319;SDS011;59599;47.608;12.190;2022-08-01T14:00:44;2.30;;;1.42;;
13319;SDS011;59599;47.608;12.190;2022-08-01T14:03:10;2.50;;;1.30;;
13319;SDS011;59599;47.608;12.190;2022-08-01T14:05:37;2.78;;;1.50;;
13319;SDS011;59599;47.608;12.190;2022-08-01T14:08:02;1.92;;;1.25;;
13319;SDS011;59599;47.608;12.190;2022-08-01T14:10:28;2.25;;;1.15;;
13319;SDS011;59599;47.608;12.190;2022-08-01T14:12:55;3.05;;;1.38;;
13319;SDS011;59599;47.608;12.190;2022-08-01T14:15:22;3.30;;;1.42;;
13319;SDS011;59599;47.608;12.190;2022-08-01T14:17:48;5.03;;;1.80;;
13319;SDS011;59599;47.608;12.190;2022-08-01T14:20:15;1.50;;;1.25;;
13319;SDS011;59599;47.608;12.190;2022-08-01T14:22:44;1.10;;;1.00;;
13319;SDS011;59599;47.608;12.190;2022-08-01T14:25:10;4.43;;;1.40;;
13319;SDS011;59599;47.608;12.190;2022-08-01T14:27:36;2.30;;;1.33;;
13319;SDS011;59599;47.608;12.190;2022-08-01T14:30:02;4.65;;;1.48;;
13319;SDS011;59599;47.608;12.190;2022-08-01T14:32:28;1.83;;;1.33;;
13319;SDS011;59599;47.608;12.190;2022-08-01T14:34:55;2.67;;;1.40;;
13319;SDS011;59599;47.608;12.190;2022-08-01T14:37:21;1.23;;;1.13;;
13319;SDS011;59599;47.608;12.190;2022-08-01T14:39:48;1.73;;;1.30;;
13319;SDS011;59599;47.608;12.190;2022-08-01T14:42:13;3.03;;;1.58;;
13319;SDS011;59599;47.608;12.190;2022-08-01T14:44:39;1.63;;;1.35;;
13319;SDS011;59599;47.608;12.190;2022-08-01T14:47:05;1.40;;;1.30;;
13319;SDS011;59599;47.608;12.190;2022-08-01T14:49:31;3.30;;;1.30;;
13319;SDS011;59599;47.608;12.190;2022-08-01T14:51:57;1.27;;;1.10;;
13319;SDS011;59599;47.608;12.190;2022-08-01T14:54:22;1.85;;;1.27;;
13319;SDS011;59599;47.608;12.190;2022-08-01T14:56:48;2.42;;;1.15;;
13319;SDS011;59599;47.608;12.190;2022-08-01T14:59:14;2.28;;;1.38;;
13319;SDS011;59599;47.608;12.190;2022-08-01T15:01:40;1.92;;;1.20;;
13319;SDS011;59599;47.608;12.190;2022-08-01T15:04:06;3.10;;;1.52;;
13319;SDS011;59599;47.608;12.190;2022-08-01T15:06:32;3.47;;;1.52;;
13319;SDS011;59599;47.608;12.190;2022-08-01T15:08:58;2.03;;;1.23;;
13319;SDS011;59599;47.608;12.190;2022-08-01T15:11:23;2.60;;;1.30;;
13319;SDS011;59599;47.608;12.190;2022-08-01T15:13:49;1.40;;;1.30;;
13319;SDS011;59599;47.608;12.190;2022-08-01T15:16:35;3.05;;;1.33;;
13319;SDS011;59599;47.608;12.190;2022-08-01T15:19:01;3.08;;;1.25;;
13319;SDS011;59599;47.608;12.190;2022-08-01T15:21:27;1.60;;;1.42;;
13319;SDS011;59599;47.608;12.190;2022-08-01T15:23:53;2.08;;;1.40;;
13319;SDS011;59599;47.608;12.190;2022-08-01T15:26:19;2.63;;;1.33;;
13319;SDS011;59599;47.608;12.190;2022-08-01T15:28:45;2.72;;;1.58;;
13319;SDS011;59599;47.608;12.190;2022-08-01T15:31:11;1.88;;;1.27;;
13319;SDS011;59599;47.608;12.190;2022-08-01T15:33:36;3.33;;;1.30;;
13319;SDS011;59599;47.608;12.190;2022-08-01T15:36:02;1.38;;;1.27;;
13319;SDS011;59599;47.608;12.190;2022-08-01T15:38:28;3.03;;;1.33;;
13319;SDS011;59599;47.608;12.190;2022-08-01T15:40:53;1.83;;;1.40;;
13319;SDS011;59599;47.608;12.190;2022-08-01T15:43:19;2.05;;;1.20;;
13319;SDS011;59599;47.608;12.190;2022-08-01T15:45:45;3.33;;;1.30;;
13319;SDS011;59599;47.608;12.190;2022-08-01T15:48:11;1.35;;;1.10;;
13319;SDS011;59599;47.608;12.190;2022-08-01T15:50:37;5.10;;;1.40;;
13319;SDS011;59599;47.608;12.190;2022-08-01T15:53:03;2.03;;;1.30;;
13319;SDS011;59599;47.608;12.190;2022-08-01T15:55:29;2.92;;;1.30;;
13319;SDS011;59599;47.608;12.190;2022-08-01T15:57:55;2.45;;;1.40;;
13319;SDS011;59599;47.608;12.190;2022-08-01T16:00:21;1.55;;;1.30;;
13319;SDS011;59599;47.608;12.190;2022-08-01T16:02:47;1.48;;;1.25;;
13319;SDS011;59599;47.608;12.190;2022-08-01T16:05:13;3.35;;;1.40;;
13319;SDS011;59599;47.608;12.190;2022-08-01T16:07:39;2.35;;;1.50;;
13319;SDS011;59599;47.608;12.190;2022-08-01T16:10:05;2.65;;;1.33;;
13319;SDS011;59599;47.608;12.190;2022-08-01T16:12:31;3.67;;;1.48;;
13319;SDS011;59599;47.608;12.190;2022-08-01T16:14:57;1.80;;;1.10;;
13319;SDS011;59599;47.608;12.190;2022-08-01T16:17:23;2.50;;;1.30;;
13319;SDS011;59599;47.608;12.190;2022-08-01T16:19:49;4.00;;;1.25;;
13319;SDS011;59599;47.608;12.190;2022-08-01T16:22:15;3.58;;;1.38;;
13319;SDS011;59599;47.608;12.190;2022-08-01T16:24:41;4.13;;;1.52;;
13319;SDS011;59599;47.608;12.190;2022-08-01T16:27:07;2.63;;;1.25;;
13319;SDS011;59599;47.608;12.190;2022-08-01T16:29:33;2.17;;;1.40;;
13319;SDS011;59599;47.608;12.190;2022-08-01T16:31:59;2.60;;;1.30;;
13319;SDS011;59599;47.608;12.190;2022-08-01T16:34:26;1.83;;;1.25;;
13319;SDS011;59599;47.608;12.190;2022-08-01T16:36:52;2.22;;;1.40;;
13319;SDS011;59599;47.608;12.190;2022-08-01T16:39:19;2.35;;;1.27;;
13319;SDS011;59599;47.608;12.190;2022-08-01T16:41:45;3.10;;;1.30;;
13319;SDS011;59599;47.608;12.190;2022-08-01T16:44:11;4.80;;;1.30;;
13319;SDS011;59599;47.608;12.190;2022-08-01T16:46:37;1.23;;;1.13;;
13319;SDS011;59599;47.608;12.190;2022-08-01T16:49:03;3.10;;;1.45;;
13319;SDS011;59599;47.608;12.190;2022-08-01T16:51:30;5.50;;;1.20;;
13319;SDS011;59599;47.608;12.190;2022-08-01T16:53:56;1.48;;;1.30;;
13319;SDS011;59599;47.608;12.190;2022-08-01T16:56:22;1.67;;;1.13;;
13319;SDS011;59599;47.608;12.190;2022-08-01T16:58:48;2.47;;;1.08;;
13319;SDS011;59599;47.608;12.190;2022-08-01T17:01:13;1.58;;;1.10;;
13319;SDS011;59599;47.608;12.190;2022-08-01T17:03:42;2.47;;;1.50;;
13319;SDS011;59599;47.608;12.190;2022-08-01T17:06:08;2.75;;;1.20;;
13319;SDS011;59599;47.608;12.190;2022-08-01T17:08:34;1.50;;;1.10;;
13319;SDS011;59599;47.608;12.190;2022-08-01T17:11:00;2.72;;;1.40;;
13319;SDS011;59599;47.608;12.190;2022-08-01T17:13:25;3.58;;;1.50;;
13319;SDS011;59599;47.608;12.190;2022-08-01T17:15:51;3.38;;;1.70;;
13319;SDS011;59599;47.608;12.190;2022-08-01T17:18:17;2.53;;;1.20;;
13319;SDS011;59599;47.608;12.190;2022-08-01T17:20:43;2.58;;;1.20;;
13319;SDS011;59599;47.608;12.190;2022-08-01T17:23:11;4.18;;;1.52;;
13319;SDS011;59599;47.608;12.190;2022-08-01T17:25:37;3.67;;;1.30;;
13319;SDS011;59599;47.608;12.190;2022-08-01T17:28:03;2.20;;;1.42;;
13319;SDS011;59599;47.608;12.190;2022-08-01T17:30:29;4.18;;;1.20;;
13319;SDS011;59599;47.608;12.190;2022-08-01T17:32:54;1.50;;;1.40;;
13319;SDS011;59599;47.608;12.190;2022-08-01T17:35:20;3.03;;;1.55;;
13319;SDS011;59599;47.608;12.190;2022-08-01T17:37:46;7.32;;;1.52;;
13319;SDS011;59599;47.608;12.190;2022-08-01T17:40:12;1.40;;;1.13;;
13319;SDS011;59599;47.608;12.190;2022-08-01T17:42:38;2.33;;;1.48;;
13319;SDS011;59599;47.608;12.190;2022-08-01T17:45:08;3.40;;;1.40;;
13319;SDS011;59599;47.608;12.190;2022-08-01T17:47:35;2.95;;;1.50;;
13319;SDS011;59599;47.608;12.190;2022-08-01T17:50:01;5.90;;;1.60;;
13319;SDS011;59599;47.608;12.190;2022-08-01T17:52:30;3.22;;;1.65;;
13319;SDS011;59599;47.608;12.190;2022-08-01T17:54:56;3.75;;;1.70;;
13319;SDS011;59599;47.608;12.190;2022-08-01T17:57:22;1.48;;;1.38;;
13319;SDS011;59599;47.608;12.190;2022-08-01T17:59:47;2.65;;;1.73;;
13319;SDS011;59599;47.608;12.190;2022-08-01T18:02:14;6.55;;;1.30;;
13319;SDS011;59599;47.608;12.190;2022-08-01T18:04:40;3.33;;;1.48;;
13319;SDS011;59599;47.608;12.190;2022-08-01T18:07:06;3.85;;;1.60;;
13319;SDS011;59599;47.608;12.190;2022-08-01T18:09:32;3.40;;;1.40;;
13319;SDS011;59599;47.608;12.190;2022-08-01T18:11:59;1.65;;;1.20;;
13319;SDS011;59599;47.608;12.190;2022-08-01T18:14:25;2.80;;;1.58;;
13319;SDS011;59599;47.608;12.190;2022-08-01T18:16:51;1.50;;;1.40;;
13319;SDS011;59599;47.608;12.190;2022-08-01T18:19:17;1.75;;;1.27;;
13319;SDS011;59599;47.608;12.190;2022-08-01T18:21:44;1.83;;;1.40;;
13319;SDS011;59599;47.608;12.190;2022-08-01T18:24:11;6.35;;;1.70;;
13319;SDS011;59599;47.608;12.190;2022-08-01T18:26:37;1.85;;;1.50;;
13319;SDS011;59599;47.608;12.190;2022-08-01T18:29:03;2.15;;;1.27;;
13319;SDS011;59599;47.608;12.190;2022-08-01T18:31:30;1.77;;;1.55;;
13319;SDS011;59599;47.608;12.190;2022-08-01T18:33:56;2.58;;;1.30;;
13319;SDS011;59599;47.608;12.190;2022-08-01T18:36:22;4.00;;;1.40;;
13319;SDS011;59599;47.608;12.190;2022-08-01T18:38:48;6.03;;;1.73;;
13319;SDS011;59599;47.608;12.190;2022-08-01T18:41:15;3.33;;;1.65;;
13319;SDS011;59599;47.608;12.190;2022-08-01T18:43:41;2.75;;;1.60;;
13319;SDS011;59599;47.608;12.190;2022-08-01T18:46:07;3.15;;;1.42;;
13319;SDS011;59599;47.608;12.190;2022-08-01T18:48:33;3.17;;;1.63;;
13319;SDS011;59599;47.608;12.190;2022-08-01T18:50:59;3.13;;;1.40;;
13319;SDS011;59599;47.608;12.190;2022-08-01T18:53:26;4.28;;;1.80;;
13319;SDS011;59599;47.608;12.190;2022-08-01T18:55:51;3.13;;;1.67;;
13319;SDS011;59599;47.608;12.190;2022-08-01T18:58:18;2.75;;;1.70;;
13319;SDS011;59599;47.608;12.190;2022-08-01T19:00:44;4.15;;;1.90;;
13319;SDS011;59599;47.608;12.190;2022-08-01T19:03:10;3.15;;;1.90;;
13319;SDS011;59599;47.608;12.190;2022-08-01T19:05:37;7.18;;;2.00;;
13319;SDS011;59599;47.608;12.190;2022-08-01T19:08:03;3.25;;;1.67;;